Time;durP1;ratioP1;P1;durP2;ratioP2;P2;SDS_P1;SDS_P2;PMS_P1;PMS_P2;Temp;Humidity;BMP_temperature;BMP_pressure;BME280_temperature;BME280_humidity;BME280_pressure;Samples;Min_cycle;Max_cycle;Signal;HPM_P1;HPM_P2
2022/07/31 00:01:16;;;;;;;6.82;3.40;;;19.60;98.90;;;;;;5096417;28;20052;-69
2022/07/31 00:03:42;;;;;;;6.90;3.70;;;19.10;98.80;;;;;;5091553;28;20178;-69
2022/07/31 00:06:08;;;;;;;5.70;3.40;;;;;;;;;;5105338;28;20051;-69
2022/07/31 00:08:34;;;;;;;5.35;3.45;;;20.60;99.30;;;;;;5108790;28;20029;-68
2022/07/31 00:11:00;;;;;;;7.05;3.40;;;18.60;98.90;;;;;;5104056;28;20040;-69
2022/07/31 00:13:26;;;;;;;6.75;3.13;;;;;;;;;;5112198;28;20479;-69
2022/07/31 00:15:51;;;;;;;5.28;3.53;;;19.80;95.50;;;;;;5101514;28;20044;-68
2022/07/31 00:18:17;;;;;;;7.35;3.10;;;18.20;98.80;;;;;;5084013;28;20065;-69
2022/07/31 00:20:43;;;;;;;9.48;3.38;;;19.00;99.00;;;;;;5103336;28;20036;-69
2022/07/31 00:23:09;;;;;;;6.43;3.22;;;20.00;99.30;;;;;;5091814;28;20437;-68
2022/07/31 00:25:35;;;;;;;10.93;3.40;;;;;;;;;;5103850;28;20044;-69
2022/07/31 00:28:02;;;;;;;6.50;3.35;;;20.00;99.50;;;;;;5091683;28;20044;-69
2022/07/31 00:30:27;;;;;;;5.70;3.70;;;20.40;99.40;;;;;;5079965;28;20382;-69
2022/07/31 00:32:53;;;;;;;7.50;3.95;;;19.30;95.50;;;;;;5113308;28;20040;-69
2022/07/31 00:35:19;;;;;;;8.05;3.63;;;20.30;99.40;;;;;;5098009;28;20058;-69
2022/07/31 00:37:45;;;;;;;5.03;3.53;;;;;;;;;;5114844;28;20070;-69
2022/07/31 00:40:14;;;;;;;5.68;3.65;;;20.20;97.00;;;;;;5098112;28;20042;-69
2022/07/31 00:42:40;;;;;;;6.05;3.20;;;19.60;96.10;;;;;;5100852;28;20067;-69
2022/07/31 00:45:08;;;;;;;5.03;3.55;;;18.20;99.00;;;;;;5081177;28;20126;-69
2022/07/31 00:47:33;;;;;;;6.85;3.50;;;20.50;99.60;;;;;;5114754;28;20573;-69
2022/07/31 00:49:59;;;;;;;9.57;3.72;;;20.50;99.60;;;;;;5083129;28;20131;-69
2022/07/31 00:52:24;;;;;;;4.40;3.40;;;19.30;99.40;;;;;;5113710;28;20373;-69
2022/07/31 00:54:50;;;;;;;5.45;3.67;;;20.40;99.70;;;;;;5097838;28;20048;-69
2022/07/31 00:57:16;;;;;;;10.68;3.70;;;20.30;99.80;;;;;;5082783;28;20148;-69
2022/07/31 00:59:42;;;;;;;9.52;3.85;;;;;;;;;;5090226;28;20130;-69
2022/07/31 01:02:08;;;;;;;6.55;3.95;;;19.40;99.50;;;;;;5101469;28;20044;-69
2022/07/31 01:04:34;;;;;;;4.63;3.88;;;19.00;99.50;;;;;;5054693;28;20405;-69
2022/07/31 01:07:00;;;;;;;9.55;4.20;;;20.20;99.70;;;;;;5065925;28;20036;-68
2022/07/31 01:09:26;;;;;;;5.85;3.85;;;19.70;96.00;;;;;;5074860;28;20090;-68
2022/07/31 01:12:13;;;;;;;6.40;4.25;;;20.40;99.90;;;;;;5062412;28;20126;-69
2022/07/31 01:15:00;;;;;;;12.63;3.72;;;;;;;;;;5066350;28;20070;-69
2022/07/31 01:17:28;;;;;;;8.77;4.30;;;18.80;99.60;;;;;;5071368;28;20128;-69
2022/07/31 01:19:54;;;;;;;7.13;3.90;;;;;;;;;;5057221;28;20040;-68
2022/07/31 01:22:44;;;;;;;6.05;4.00;;;19.60;99.50;;;;;;5061593;28;20041;-69
2022/07/31 01:25:16;;;;;;;9.30;4.38;;;20.40;99.90;;;;;;5054191;28;20132;-69
2022/07/31 01:27:51;;;;;;;6.68;4.75;;;18.50;96.30;;;;;;5068130;28;20036;-69
2022/07/31 01:30:18;;;;;;;6.57;4.30;;;;;;;;;;5055499;28;20095;-69
2022/07/31 01:32:47;;;;;;;8.35;4.15;;;20.00;99.90;;;;;;5069582;28;20036;-69
2022/07/31 01:35:33;;;;;;;11.18;4.57;;;20.20;99.90;;;;;;5074128;28;20106;-69
2022/07/31 01:37:59;;;;;;;9.93;4.38;;;;;;;;;;5059556;28;20053;-69
2022/07/31 01:40:35;;;;;;;6.05;4.05;;;18.10;99.80;;;;;;5075191;28;20043;-69
2022/07/31 01:43:06;;;;;;;8.02;4.13;;;19.40;96.30;;;;;;5058071;28;20073;-68
2022/07/31 01:45:33;;;;;;;8.75;3.95;;;19.50;99.90;;;;;;5058074;28;20111;-69
2022/07/31 01:48:01;;;;;;;11.35;3.78;;;19.00;96.60;;;;;;5058132;28;20041;-69
2022/07/31 01:50:27;;;;;;;4.22;3.70;;;;;;;;;;5053696;28;20047;-69
2022/07/31 01:52:56;;;;;;;8.65;5.45;;;17.90;99.90;;;;;;5066991;28;20036;-69
2022/07/31 01:55:24;;;;;;;5.93;3.80;;;19.60;99.90;;;;;;5073585;28;20122;-69
2022/07/31 01:57:51;;;;;;;5.45;3.60;;;19.10;99.90;;;;;;5061326;28;20123;-69
2022/07/31 02:00:17;;;;;;;7.55;3.97;;;18.10;99.90;;;;;;5053624;28;20120;-69
2022/07/31 02:02:46;;;;;;;4.43;3.83;;;18.90;99.90;;;;;;5072840;28;20117;-69
2022/07/31 02:05:12;;;;;;;8.05;4.45;;;19.40;96.80;;;;;;5113992;28;20069;-69
2022/07/31 02:07:40;;;;;;;6.15;4.00;;;19.60;99.90;;;;;;5105929;28;20040;-69
2022/07/31 02:10:08;;;;;;;6.22;4.10;;;18.90;96.30;;;;;;5110079;28;20045;-69
2022/07/31 02:12:36;;;;;;;8.68;3.80;;;19.70;99.90;;;;;;5105817;28;20036;-69
2022/07/31 02:15:08;;;;;;;9.23;4.75;;;19.00;99.90;;;;;;5094882;28;20549;-69
2022/07/31 02:17:36;;;;;;;9.48;4.50;;;18.10;99.90;;;;;;5088344;28;20419;-69
2022/07/31 02:20:05;;;;;;;8.27;3.97;;;19.00;96.40;;;;;;5093362;28;20481;-69
2022/07/31 02:22:32;;;;;;;10.57;4.53;;;19.20;96.40;;;;;;5099435;28;20075;-69
2022/07/31 02:24:58;;;;;;;7.00;4.20;;;18.10;99.90;;;;;;5113793;28;20047;-69
2022/07/31 02:27:25;;;;;;;6.68;4.50;;;19.20;99.90;;;;;;5100371;28;20476;-69
2022/07/31 02:29:52;;;;;;;4.95;4.45;;;;;;;;;;5113556;28;20089;-69
2022/07/31 02:32:20;;;;;;;12.05;5.07;;;19.00;96.40;;;;;;5111245;28;20039;-69
2022/07/31 02:34:46;;;;;;;7.78;5.05;;;19.00;96.40;;;;;;5093054;28;20044;-69
2022/07/31 02:37:14;;;;;;;7.30;4.80;;;19.50;99.90;;;;;;5094685;28;20048;-69
2022/07/31 02:39:41;;;;;;;6.93;4.80;;;18.90;96.40;;;;;;5113434;28;20043;-69
2022/07/31 02:42:08;;;;;;;7.97;4.65;;;18.70;95.90;;;;;;5112577;28;20058;-69
2022/07/31 02:44:36;;;;;;;7.45;5.50;;;20.00;99.90;;;;;;5092790;28;20488;-69
2022/07/31 02:47:04;;;;;;;10.50;5.07;;;17.60;99.90;;;;;;5075868;28;20040;-69
2022/07/31 02:49:32;;;;;;;8.20;4.93;;;18.50;99.90;;;;;;5113216;28;20035;-69
2022/07/31 02:51:58;;;;;;;13.57;4.85;;;19.60;99.90;;;;;;5114582;28;20036;-69
2022/07/31 02:54:25;;;;;;;8.68;5.68;;;19.00;99.90;;;;;;5094761;28;20135;-69
2022/07/31 02:56:52;;;;;;;6.13;5.03;;;18.70;96.60;;;;;;5107588;28;20047;-69
2022/07/31 02:59:18;;;;;;;8.35;5.90;;;18.10;99.90;;;;;;5084234;28;20077;-69
2022/07/31 03:01:44;;;;;;;9.50;5.47;;;;;;;;;;5076195;28;20051;-69
2022/07/31 03:04:11;;;;;;;8.25;5.50;;;;;;;;;;5107249;28;20065;-69
2022/07/31 03:06:37;;;;;;;8.30;5.35;;;;;;;;;;5084013;28;20177;-69
2022/07/31 03:09:02;;;;;;;8.25;5.90;;;18.70;99.90;;;;;;5105772;28;20039;-69
2022/07/31 03:11:29;;;;;;;11.25;5.38;;;;;;;;;;5113065;28;20051;-69
2022/07/31 03:13:59;;;;;;;9.57;5.15;;;18.60;99.90;;;;;;5100917;28;20038;-69
2022/07/31 03:16:26;;;;;;;7.10;5.20;;;18.60;96.90;;;;;;5102993;28;20093;-69
2022/07/31 03:18:53;;;;;;;10.07;4.78;;;19.30;99.90;;;;;;5107692;28;20047;-69
2022/07/31 03:21:19;;;;;;;6.70;5.00;;;18.60;99.90;;;;;;5114102;28;20039;-69
2022/07/31 03:23:46;;;;;;;10.40;5.22;;;18.80;97.10;;;;;;5104111;28;20575;-69
2022/07/31 03:26:13;;;;;;;7.30;4.80;;;;;;;;;;5092175;28;20542;-69
2022/07/31 03:28:39;;;;;;;10.77;5.70;;;18.70;97.40;;;;;;5099473;28;20090;-69
2022/07/31 03:31:06;;;;;;;8.68;5.30;;;;;;;;;;5112548;28;20447;-69
2022/07/31 03:33:32;;;;;;;10.85;5.32;;;18.60;97.40;;;;;;5090283;28;20035;-69
2022/07/31 03:35:59;;;;;;;9.88;5.55;;;18.70;99.90;;;;;;5092235;28;20047;-69
2022/07/31 03:38:25;;;;;;;10.80;5.38;;;19.50;99.90;;;;;;5095371;28;20039;-69
2022/07/31 03:40:51;;;;;;;8.70;5.35;;;18.80;99.90;;;;;;5084358;28;20036;-69
2022/07/31 03:43:17;;;;;;;9.40;5.20;;;19.10;99.90;;;;;;5094632;28;20040;-69
2022/07/31 03:45:44;;;;;;;10.20;5.35;;;18.40;96.80;;;;;;5113888;28;20395;-69
2022/07/31 03:48:10;;;;;;;9.63;5.35;;;19.60;99.90;;;;;;5094754;28;20070;-69
2022/07/31 03:50:37;;;;;;;8.23;5.15;;;18.60;97.10;;;;;;5091960;28;20040;-69
2022/07/31 03:53:07;;;;;;;8.82;5.22;;;;;;;;;;5093639;28;20046;-69
2022/07/31 03:55:35;;;;;;;12.02;5.30;;;18.80;97.50;;;;;;5092771;28;20127;-69
2022/07/31 03:58:05;;;;;;;5.75;4.55;;;18.50;97.70;;;;;;5092044;28;20048;-69
2022/07/31 04:00:32;;;;;;;10.65;5.40;;;19.30;99.90;;;;;;5110301;28;20052;-69
2022/07/31 04:03:05;;;;;;;7.70;5.25;;;18.60;97.60;;;;;;5112700;28;20044;-69
2022/07/31 04:05:31;;;;;;;8.82;5.22;;;;;;;;;;5094122;28;20123;-69
2022/07/31 04:07:58;;;;;;;11.88;5.22;;;18.40;99.90;;;;;;5091861;28;20044;-69
2022/07/31 04:10:24;;;;;;;7.88;5.45;;;17.40;99.90;;;;;;5108387;28;20036;-69
2022/07/31 04:12:50;;;;;;;7.95;5.38;;;;;;;;;;5111313;28;20084;-69
2022/07/31 04:15:16;;;;;;;11.25;5.47;;;17.40;99.90;;;;;;5084650;28;20048;-69
2022/07/31 04:17:41;;;;;;;8.43;5.68;;;19.10;99.90;;;;;;5078804;28;20552;-69
2022/07/31 04:20:07;;;;;;;8.18;5.57;;;18.70;99.90;;;;;;5108040;28;20048;-69
2022/07/31 04:22:33;;;;;;;7.63;5.82;;;;;;;;;;5108471;28;20040;-69
2022/07/31 04:24:59;;;;;;;11.77;5.70;;;;;;;;;;5106030;28;20039;-69
2022/07/31 04:27:26;;;;;;;9.60;5.60;;;;;;;;;;5115962;28;20035;-69
2022/07/31 04:29:52;;;;;;;7.00;5.20;;;;;;;;;;5090227;28;20035;-69
2022/07/31 04:32:18;;;;;;;8.32;5.45;;;;;;;;;;5088132;28;20042;-69
2022/07/31 04:34:44;;;;;;;12.98;5.63;;;;;;;;;;5108970;28;20127;-69
2022/07/31 04:37:10;;;;;;;7.28;5.57;;;;;;;;;;5078519;28;20044;-69
2022/07/31 04:39:36;;;;;;;6.50;5.22;;;;;;;;;;5101724;28;20543;-69
2022/07/31 04:42:02;;;;;;;11.30;5.55;;;;;;;;;;5096635;28;20430;-69
2022/07/31 04:44:28;;;;;;;7.72;5.53;;;;;;;;;;5098634;28;20036;-69
2022/07/31 04:47:04;;;;;;;9.88;5.72;;;18.10;99.90;;;;;;5115667;28;20044;-69
2022/07/31 04:49:31;;;;;;;7.68;5.47;;;17.50;99.90;;;;;;5113067;28;20036;-69
2022/07/31 04:51:58;;;;;;;10.55;5.10;;;18.80;98.00;;;;;;5094031;28;20450;-76
2022/07/31 04:54:24;;;;;;;10.70;5.38;;;;;;;;;;5096294;28;20071;-68
2022/07/31 04:56:51;;;;;;;9.82;5.68;;;;;;;;;;5095020;28;20101;-69
2022/07/31 04:59:19;;;;;;;9.90;5.70;;;18.90;98.10;;;;;;5095099;28;20048;-69
2022/07/31 05:01:45;;;;;;;7.35;5.47;;;19.70;99.50;;;;;;5101468;28;20046;-69
2022/07/31 05:04:11;;;;;;;8.75;6.13;;;18.40;99.90;;;;;;5077662;28;20052;-69
2022/07/31 05:06:37;;;;;;;8.60;5.43;;;;;;;;;;5103313;28;20086;-68
2022/07/31 05:09:05;;;;;;;8.23;5.30;;;;;;;;;;5078237;28;20387;-69
2022/07/31 05:11:31;;;;;;;12.82;5.93;;;19.30;99.90;;;;;;5100396;28;20206;-68
2022/07/31 05:14:00;;;;;;;6.97;5.50;;;18.80;98.30;;;;;;5094105;28;20044;-68
2022/07/31 05:16:27;;;;;;;10.52;5.82;;;18.20;99.90;;;;;;5108653;28;20069;-68
2022/07/31 05:18:53;;;;;;;8.38;6.03;;;;;;;;;;5094601;28;20051;-69
2022/07/31 05:21:20;;;;;;;10.68;6.28;;;18.80;97.80;;;;;;5094545;28;20381;-68
2022/07/31 05:23:47;;;;;;;7.65;5.68;;;18.60;98.20;;;;;;5093452;28;20489;-68
2022/07/31 05:26:13;;;;;;;9.70;5.70;;;19.30;98.40;;;;;;5106622;28;20107;-69
2022/07/31 05:28:40;;;;;;;8.80;5.32;;;;;;;;;;5114807;28;20051;-69
2022/07/31 05:31:07;;;;;;;7.40;5.63;;;18.70;99.90;;;;;;5104338;28;20500;-69
2022/07/31 05:33:33;;;;;;;9.52;6.28;;;;;;;;;;5095903;28;20044;-68
2022/07/31 05:35:59;;;;;;;12.55;6.03;;;;;;;;;;5103660;28;20537;-69
2022/07/31 05:38:25;;;;;;;10.13;6.28;;;;;;;;;;5114556;28;20040;-68
2022/07/31 05:40:52;;;;;;;9.15;6.65;;;;;;;;;;5105958;28;20040;-69
2022/07/31 05:43:18;;;;;;;10.55;6.50;;;;;;;;;;5094171;28;20048;-68
2022/07/31 05:45:45;;;;;;;8.52;6.38;;;;;;;;;;5100601;28;20038;-68
2022/07/31 05:48:12;;;;;;;10.85;6.07;;;18.80;98.00;;;;;;5114125;28;20578;-68
2022/07/31 05:50:45;;;;;;;9.57;6.65;;;19.30;99.90;;;;;;5105200;28;20040;-68
2022/07/31 05:53:13;;;;;;;10.23;6.80;;;;;;;;;;5097552;28;20368;-69
2022/07/31 05:55:39;;;;;;;9.95;6.57;;;;;;;;;;5109762;28;20456;-68
2022/07/31 05:58:05;;;;;;;11.38;6.65;;;;;;;;;;5076884;28;20043;-69
2022/07/31 06:00:32;;;;;;;10.27;6.85;;;;;;;;;;5102902;28;20043;-69
2022/07/31 06:02:58;;;;;;;7.88;5.80;;;;;;;;;;5093516;28;20055;-73
2022/07/31 06:05:28;;;;;;;9.63;6.70;;;19.20;98.50;;;;;;5094000;28;20108;-68
2022/07/31 06:07:54;;;;;;;10.68;7.40;;;19.30;99.20;;;;;;5115530;28;20060;-68
2022/07/31 06:10:20;;;;;;;12.32;7.72;;;20.00;99.90;;;;;;5115077;28;20043;-68
2022/07/31 06:12:46;;;;;;;13.32;7.05;;;19.70;99.90;;;;;;5095575;28;20039;-76
2022/07/31 06:15:12;;;;;;;13.55;8.05;;;;;;;;;;5114069;28;20043;-76
2022/07/31 06:17:39;;;;;;;9.98;7.45;;;;;;;;;;5095785;28;20395;-75
2022/07/31 06:20:05;;;;;;;14.82;7.35;;;20.20;99.90;;;;;;5100983;28;20039;-76
2022/07/31 06:22:31;;;;;;;8.60;6.60;;;;;;;;;;5097310;28;20385;-75
2022/07/31 06:24:57;;;;;;;12.70;7.28;;;;;;;;;;5106875;28;20142;-75
2022/07/31 06:27:23;;;;;;;14.93;7.80;;;;;;;;;;5099116;28;20032;-76
2022/07/31 06:29:49;;;;;;;13.27;7.80;;;;;;;;;;5076462;28;20075;-75
2022/07/31 06:32:15;;;;;;;9.05;7.50;;;19.20;99.90;;;;;;5105919;28;20391;-75
2022/07/31 06:34:41;;;;;;;13.98;7.78;;;18.80;99.90;;;;;;5085816;28;20047;-76
2022/07/31 06:37:07;;;;;;;11.05;8.07;;;19.50;99.90;;;;;;5094898;28;20123;-75
2022/07/31 06:39:33;;;;;;;10.77;6.93;;;18.70;99.90;;;;;;5076249;28;20126;-76
2022/07/31 06:41:59;;;;;;;10.27;7.63;;;19.50;99.90;;;;;;5102085;28;20051;-75
2022/07/31 06:44:25;;;;;;;12.38;8.23;;;18.30;99.90;;;;;;5112799;28;20040;-75
2022/07/31 06:46:51;;;;;;;13.45;8.20;;;;;;;;;;5111173;28;20387;-76
2022/07/31 06:49:17;;;;;;;12.10;8.48;;;20.30;99.90;;;;;;5113477;28;20391;-73
2022/07/31 06:51:43;;;;;;;12.20;8.52;;;;;;;;;;5112645;28;20028;-77
2022/07/31 06:54:10;;;;;;;11.00;7.57;;;19.60;98.50;;;;;;5113257;28;20151;-81
2022/07/31 06:56:38;;;;;;;15.63;8.00;;;19.60;98.40;;;;;;5109286;28;20036;-85
2022/07/31 06:59:05;;;;;;;12.98;10.35;;;19.60;98.10;;;;;;5092891;28;20036;-78
2022/07/31 07:01:31;;;;;;;10.45;8.05;;;20.00;98.10;;;;;;5094676;28;20036;-80
2022/07/31 07:03:57;;;;;;;10.32;8.27;;;19.20;99.90;;;;;;5095893;28;20046;-69
2022/07/31 07:06:24;;;;;;;17.10;10.20;;;20.10;99.90;;;;;;5094229;28;20043;-69
2022/07/31 07:08:50;;;;;;;15.05;10.27;;;18.80;99.90;;;;;;5098229;28;20036;-68
2022/07/31 07:11:16;;;;;;;15.90;10.48;;;20.10;98.20;;;;;;5092898;28;20066;-68
2022/07/31 07:13:41;;;;;;;13.65;9.80;;;20.70;99.90;;;;;;5105821;28;20542;-69
2022/07/31 07:16:08;;;;;;;16.83;10.80;;;;;;;;;;5092828;28;20123;-69
2022/07/31 07:18:34;;;;;;;14.90;9.85;;;;;;;;;;5102815;28;20427;-68
2022/07/31 07:21:00;;;;;;;14.60;10.98;;;;;;;;;;5093459;28;20101;-68
2022/07/31 07:23:26;;;;;;;16.65;11.45;;;;;;;;;;5107064;28;20048;-68
2022/07/31 07:25:52;;;;;;;17.23;11.52;;;18.90;99.90;;;;;;5112369;28;20052;-68
2022/07/31 07:28:18;;;;;;;17.17;10.73;;;19.00;99.90;;;;;;5098664;28;20055;-68
2022/07/31 07:30:43;;;;;;;18.27;11.48;;;21.10;99.90;;;;;;5088599;28;20042;-68
2022/07/31 07:33:09;;;;;;;17.05;11.32;;;;;;;;;;5089800;28;20082;-68
2022/07/31 07:35:35;;;;;;;15.90;11.68;;;;;;;;;;5101079;28;20043;-69
2022/07/31 07:38:02;;;;;;;19.80;11.75;;;;;;;;;;5103961;28;20047;-69
2022/07/31 07:40:28;;;;;;;16.73;11.82;;;19.30;99.90;;;;;;5112654;28;20035;-69
2022/07/31 07:42:54;;;;;;;21.05;11.95;;;20.90;99.90;;;;;;5091572;28;20169;-69
2022/07/31 07:45:20;;;;;;;20.95;11.98;;;;;;;;;;5112447;28;20127;-68
2022/07/31 07:47:46;;;;;;;15.55;11.95;;;20.80;99.90;;;;;;5107601;28;20035;-69
2022/07/31 07:50:14;;;;;;;19.38;12.63;;;;;;;;;;5116443;28;20140;-69
2022/07/31 07:52:40;;;;;;;19.65;11.43;;;20.20;99.90;;;;;;5091516;28;20094;-69
2022/07/31 07:55:08;;;;;;;25.48;12.77;;;20.10;99.90;;;;;;5094555;28;20055;-67
2022/07/31 07:57:35;;;;;;;22.13;11.73;;;20.00;99.90;;;;;;5111707;28;20133;-67
2022/07/31 08:00:07;;;;;;;21.20;10.73;;;19.80;99.90;;;;;;5100531;28;20039;-67
2022/07/31 08:02:33;;;;;;;20.65;11.40;;;20.50;99.90;;;;;;5098676;28;20084;-67
2022/07/31 08:04:59;;;;;;;21.50;10.80;;;20.00;99.90;;;;;;5101162;28;20040;-67
2022/07/31 08:07:29;;;;;;;18.77;10.20;;;20.30;99.90;;;;;;5097322;28;20785;-67
2022/07/31 08:09:58;;;;;;;21.20;10.90;;;19.20;99.90;;;;;;5115987;28;20075;-67
2022/07/31 08:12:25;;;;;;;17.92;10.38;;;21.10;99.90;;;;;;5104195;28;20040;-67
2022/07/31 08:14:51;;;;;;;26.85;11.95;;;18.90;99.90;;;;;;5096037;28;20040;-67
2022/07/31 08:17:17;;;;;;;22.92;10.75;;;20.90;99.90;;;;;;5103047;28;20074;-67
2022/07/31 08:19:43;;;;;;;22.23;11.43;;;;;;;;;;5096656;28;20484;-67
2022/07/31 08:22:09;;;;;;;27.25;12.45;;;;;;;;;;5092836;28;20040;-67
2022/07/31 08:24:35;;;;;;;20.40;11.02;;;21.10;99.90;;;;;;5095527;28;20101;-67
2022/07/31 08:29:45;;;;;;;21.42;11.55;;;;;;;;;;5115916;28;20468;-67
2022/07/31 08:32:12;;;;;;;21.88;11.70;;;20.80;99.90;;;;;;5114504;28;20036;-68
2022/07/31 08:34:38;;;;;;;26.80;11.82;;;20.70;99.90;;;;;;5116552;28;20048;-67
2022/07/31 08:37:05;;;;;;;17.05;10.20;;;20.40;99.90;;;;;;5111778;28;20032;-67
2022/07/31 08:39:32;;;;;;;25.05;11.95;;;19.80;99.90;;;;;;5095291;28;20071;-67
2022/07/31 08:41:58;;;;;;;22.15;10.95;;;20.30;99.90;;;;;;5097729;28;20428;-67
2022/07/31 08:44:24;;;;;;;22.00;11.52;;;;;;;;;;5103907;28;20137;-67
2022/07/31 08:46:53;;;;;;;20.83;12.25;;;20.20;99.90;;;;;;5083274;28;20081;-67
2022/07/31 08:49:20;;;;;;;24.23;12.35;;;21.00;99.90;;;;;;5103334;28;20052;-67
2022/07/31 08:51:46;;;;;;;22.60;12.40;;;;;;;;;;5108830;28;20040;-67
2022/07/31 08:54:12;;;;;;;25.00;12.27;;;21.00;99.90;;;;;;5097919;28;20055;-67
2022/07/31 08:56:39;;;;;;;24.35;12.13;;;20.90;99.90;;;;;;5095213;28;20044;-67
2022/07/31 08:59:06;;;;;;;23.45;12.00;;;21.20;99.90;;;;;;5077298;28;20036;-67
2022/07/31 09:01:33;;;;;;;21.70;12.02;;;21.00;99.90;;;;;;5097343;28;20510;-67
2022/07/31 09:03:59;;;;;;;18.50;11.95;;;21.30;99.90;;;;;;5099190;28;20048;-67
2022/07/31 09:06:26;;;;;;;23.17;12.88;;;;;;;;;;5103051;28;20047;-66
2022/07/31 09:08:52;;;;;;;20.10;11.98;;;;;;;;;;5096716;28;20122;-67
2022/07/31 09:11:18;;;;;;;20.45;12.05;;;;;;;;;;5096203;28;20116;-67
2022/07/31 09:13:54;;;;;;;21.13;12.68;;;;;;;;;;5094943;28;20053;-67
2022/07/31 09:16:21;;;;;;;21.92;13.35;;;20.30;99.90;;;;;;5097910;28;20040;-67
2022/07/31 09:18:57;;;;;;;31.23;14.32;;;19.10;99.90;;;;;;5099152;28;21446;-67
2022/07/31 09:21:23;;;;;;;23.45;14.65;;;20.50;99.90;;;;;;5098303;28;20077;-67
2022/07/31 09:23:49;;;;;;;22.17;13.68;;;;;;;;;;5095987;28;20071;-67
2022/07/31 09:26:15;;;;;;;21.38;14.00;;;19.90;99.90;;;;;;5098759;28;20466;-67
2022/07/31 09:28:43;;;;;;;21.35;14.52;;;20.40;99.90;;;;;;5096550;28;20177;-67
2022/07/31 09:31:10;;;;;;;24.65;14.68;;;21.10;99.90;;;;;;5077673;28;20028;-67
2022/07/31 09:33:39;;;;;;;21.85;13.25;;;;;;;;;;5114672;27;20051;-67
2022/07/31 09:36:06;;;;;;;22.52;13.68;;;;;;;;;;5096016;28;20040;-67
2022/07/31 09:38:33;;;;;;;23.50;13.90;;;;;;;;;;5095171;28;20127;-67
2022/07/31 09:41:12;;;;;;;21.08;12.88;;;;;;;;;;5080973;28;20106;-67
2022/07/31 09:43:38;;;;;;;20.00;14.10;;;21.20;99.90;;;;;;5095166;28;20043;-67
2022/07/31 09:46:05;;;;;;;18.33;12.40;;;;;;;;;;5097323;28;20387;-67
2022/07/31 09:48:32;;;;;;;20.45;12.68;;;;;;;;;;5100313;28;20280;-67
2022/07/31 09:51:04;;;;;;;19.38;12.13;;;21.00;99.90;;;;;;5098044;28;20539;-68
2022/07/31 09:53:52;;;;;;;18.67;12.68;;;20.30;99.90;;;;;;5095555;28;20556;-67
2022/07/31 09:56:32;;;;;;;17.38;11.65;;;20.30;99.90;;;;;;5094088;28;20105;-67
2022/07/31 09:58:58;;;;;;;20.58;11.68;;;20.20;99.90;;;;;;5096759;28;20044;-67
2022/07/31 10:01:25;;;;;;;18.38;10.27;;;21.00;99.90;;;;;;5098129;28;20047;-67
2022/07/31 10:03:52;;;;;;;16.00;10.43;;;21.00;99.90;;;;;;5098479;28;20508;-67
2022/07/31 10:06:19;;;;;;;18.48;11.02;;;19.90;99.90;;;;;;5076695;28;20135;-67
2022/07/31 10:08:46;;;;;;;13.77;9.48;;;18.80;99.90;;;;;;5082633;28;20775;-67
2022/07/31 10:11:17;;;;;;;15.52;9.77;;;20.00;99.90;;;;;;5080921;28;20046;-67
2022/07/31 10:13:46;;;;;;;13.43;8.70;;;20.10;99.90;;;;;;5097237;28;20036;-67
2022/07/31 10:16:13;;;;;;;12.57;8.80;;;20.50;99.90;;;;;;5094684;28;20101;-67
2022/07/31 10:18:44;;;;;;;15.05;8.20;;;20.00;99.90;;;;;;5082144;28;20127;-67
2022/07/31 10:21:10;;;;;;;13.32;8.65;;;20.00;99.90;;;;;;5094503;28;20108;-67
2022/07/31 10:23:40;;;;;;;10.43;8.13;;;19.90;99.90;;;;;;5097820;28;20138;-67
2022/07/31 10:26:06;;;;;;;13.27;8.23;;;20.10;99.90;;;;;;5093295;28;20078;-67
2022/07/31 10:28:36;;;;;;;11.07;7.80;;;21.00;99.90;;;;;;5097281;28;20051;-67
2022/07/31 10:31:03;;;;;;;14.27;8.60;;;;;;;;;;5096013;28;20510;-67
2022/07/31 10:33:29;;;;;;;11.00;9.32;;;21.00;99.90;;;;;;5094774;28;20044;-67
2022/07/31 10:35:59;;;;;;;15.23;8.65;;;20.00;99.90;;;;;;5096632;28;20170;-67
2022/07/31 10:38:30;;;;;;;15.40;10.07;;;19.30;99.90;;;;;;5098663;28;20134;-67
2022/07/31 10:41:31;;;;;;;16.70;10.98;;;20.00;99.90;;;;;;5094933;28;20078;-67
2022/07/31 10:44:31;;;;;;;19.48;11.38;;;20.80;99.90;;;;;;5100932;27;20055;-67
2022/07/31 10:46:57;;;;;;;24.77;11.55;;;20.90;99.90;;;;;;5069174;28;20066;-68
2022/07/31 10:49:44;;;;;;;21.85;12.32;;;19.90;99.90;;;;;;5112591;27;20130;-67
2022/07/31 10:52:10;;;;;;;23.08;13.30;;;20.60;99.90;;;;;;5093425;28;20046;-68
2022/07/31 10:54:46;;;;;;;18.00;12.35;;;19.80;99.90;;;;;;5099670;28;20044;-68
2022/07/31 10:57:26;;;;;;;20.75;13.00;;;19.80;99.90;;;;;;5099620;28;20039;-68
2022/07/31 10:59:52;;;;;;;20.85;12.82;;;20.70;99.90;;;;;;5103945;28;20032;-67
2022/07/31 11:02:36;;;;;;;20.98;12.88;;;19.80;99.90;;;;;;5110232;28;20048;-68
2022/07/31 11:05:13;;;;;;;20.10;12.93;;;19.70;99.90;;;;;;5099825;28;20059;-67
2022/07/31 11:07:41;;;;;;;18.42;12.30;;;19.80;99.90;;;;;;5099208;28;20051;-68
2022/07/31 11:10:18;;;;;;;20.38;12.65;;;20.70;99.90;;;;;;5105681;28;20042;-67
2022/07/31 11:12:44;;;;;;;15.93;11.18;;;;;;;;;;5106192;28;20361;-67
2022/07/31 11:15:22;;;;;;;19.08;10.52;;;19.30;99.90;;;;;;5093404;28;20036;-67
2022/07/31 11:17:48;;;;;;;17.13;11.10;;;18.50;99.90;;;;;;5092348;28;20045;-67
2022/07/31 11:20:30;;;;;;;13.27;9.77;;;18.50;99.90;;;;;;5101089;28;20111;-67
2022/07/31 11:22:56;;;;;;;13.63;9.63;;;;;;;;;;5097796;28;20043;-67
2022/07/31 11:25:23;;;;;;;14.07;9.80;;;19.00;99.90;;;;;;5101360;28;20142;-67
2022/07/31 11:27:49;;;;;;;16.48;9.93;;;;;;;;;;5112465;28;20084;-67
2022/07/31 11:30:15;;;;;;;13.82;9.80;;;;;;;;;;5104427;28;20031;-67
2022/07/31 11:32:48;;;;;;;12.63;10.07;;;;;;;;;;5093028;28;20044;-67
2022/07/31 11:35:28;;;;;;;13.35;9.95;;;19.70;99.90;;;;;;5100226;28;20051;-67
2022/07/31 11:37:54;;;;;;;13.95;9.38;;;20.30;99.90;;;;;;5102443;28;20079;-67
2022/07/31 11:40:20;;;;;;;13.65;10.00;;;;;;;;;;5107748;28;20070;-67
2022/07/31 11:42:46;;;;;;;14.90;10.60;;;18.40;99.90;;;;;;5101485;28;20052;-67
2022/07/31 11:45:16;;;;;;;9.07;6.28;;;19.30;99.90;;;;;;5101202;28;20120;-67
2022/07/31 11:47:44;;;;;;;5.45;4.05;;;19.60;99.90;;;;;;5108901;28;20040;-67
2022/07/31 11:50:11;;;;;;;4.00;2.97;;;;;;;;;;5099558;28;20047;-67
2022/07/31 11:52:42;;;;;;;6.22;2.58;;;19.70;99.90;;;;;;5091117;28;20574;-67
2022/07/31 11:55:15;;;;;;;3.70;3.13;;;20.20;99.90;;;;;;5091144;28;20042;-67
2022/07/31 11:57:42;;;;;;;3.25;2.95;;;20.60;99.90;;;;;;5091034;28;20048;-67
2022/07/31 12:00:14;;;;;;;4.53;3.00;;;18.80;99.90;;;;;;5091973;28;20076;-67
2022/07/31 12:02:44;;;;;;;2.88;2.22;;;;;;;;;;5091679;28;20095;-67
2022/07/31 12:05:12;;;;;;;2.58;2.00;;;20.90;99.90;;;;;;5074918;28;20052;-67
2022/07/31 12:07:40;;;;;;;3.28;2.40;;;20.00;99.90;;;;;;5091958;28;20480;-68
2022/07/31 12:10:08;;;;;;;3.47;2.60;;;19.80;99.90;;;;;;5091723;28;20040;-67
2022/07/31 12:12:34;;;;;;;4.53;2.47;;;18.90;99.90;;;;;;5091877;28;20111;-67
2022/07/31 12:15:00;;;;;;;3.42;2.30;;;;;;;;;;5091994;28;20143;-67
2022/07/31 12:17:25;;;;;;;3.05;2.63;;;20.70;99.90;;;;;;5091974;28;20044;-67
2022/07/31 12:19:51;;;;;;;4.50;3.10;;;;;;;;;;5091794;28;20396;-67
2022/07/31 12:22:19;;;;;;;4.13;3.60;;;20.30;99.90;;;;;;5092115;28;20398;-67
2022/07/31 12:24:46;;;;;;;5.53;3.70;;;;;;;;;;5093126;28;20052;-68
2022/07/31 12:27:16;;;;;;;6.93;3.95;;;20.80;99.90;;;;;;5093167;28;20416;-67
2022/07/31 12:29:42;;;;;;;7.25;3.92;;;20.90;99.90;;;;;;5091856;28;20537;-67
2022/07/31 12:32:07;;;;;;;5.40;4.35;;;19.20;99.90;;;;;;5092488;28;20039;-67
2022/07/31 12:34:43;;;;;;;8.70;4.95;;;19.10;99.90;;;;;;5095459;28;20404;-67
2022/07/31 12:37:09;;;;;;;6.00;4.55;;;20.20;99.90;;;;;;5096787;28;20047;-68
2022/07/31 12:39:50;;;;;;;7.95;4.78;;;19.80;99.90;;;;;;5096843;28;20386;-67
2022/07/31 12:42:28;;;;;;;7.78;5.75;;;20.00;99.90;;;;;;5096558;28;20050;-68
2022/07/31 12:44:56;;;;;;;9.10;6.10;;;20.90;99.90;;;;;;5095585;28;20055;-68
2022/07/31 12:47:29;;;;;;;9.05;5.57;;;21.10;99.90;;;;;;5095240;28;20052;-67
2022/07/31 12:49:59;;;;;;;8.85;5.95;;;21.00;99.90;;;;;;5078191;28;20145;-67
2022/07/31 12:52:26;;;;;;;10.77;6.07;;;20.30;99.90;;;;;;5095301;28;20048;-67
2022/07/31 12:54:53;;;;;;;11.35;5.80;;;;;;;;;;5094834;28;20050;-68
2022/07/31 12:57:19;;;;;;;10.77;6.28;;;21.40;99.90;;;;;;5095161;28;20048;-68
2022/07/31 12:59:45;;;;;;;8.68;5.75;;;21.30;99.90;;;;;;5094906;28;20498;-68
2022/07/31 13:02:10;;;;;;;8.63;5.90;;;20.80;99.90;;;;;;5094821;28;20051;-68
2022/07/31 13:04:36;;;;;;;12.35;6.00;;;21.40;99.90;;;;;;5094897;28;20052;-68
2022/07/31 13:07:02;;;;;;;11.80;6.72;;;;;;;;;;5077838;28;20047;-68
2022/07/31 13:09:28;;;;;;;10.35;6.10;;;19.80;99.90;;;;;;5094646;28;20040;-68
2022/07/31 13:11:55;;;;;;;10.88;5.78;;;;;;;;;;5095893;28;20097;-68
2022/07/31 13:14:22;;;;;;;12.60;5.78;;;20.50;99.90;;;;;;5094542;28;20044;-68
2022/07/31 13:16:50;;;;;;;12.18;6.78;;;20.20;99.90;;;;;;5094558;28;20453;-68